Time;durP1;ratioP1;P1;durP2;ratioP2;P2;SDS_P1;SDS_P2;PMS_P1;PMS_P2;Temp;Humidity;BMP_temperature;BMP_pressure;BME280_temperature;BME280_humidity;BME280_pressure;Samples;Min_cycle;Max_cycle;Signal;HPM_P1;HPM_P2
2023/07/17 00:01:21;;;;;;;91.15;87.00;;;;;;;25.09;38.75;101439.78;5050424;28;20037;-68
2023/07/17 00:03:47;;;;;;;93.95;89.75;;;;;;;25.07;39.09;101442.84;5035011;28;20051;-67
2023/07/17 00:06:12;;;;;;;94.05;89.78;;;;;;;25.05;38.75;101440.44;5050795;28;20059;-67
2023/07/17 00:08:38;;;;;;;94.22;89.72;;;;;;;25.03;39.03;101439.94;5045049;28;20448;-69
2023/07/17 00:11:03;;;;;;;93.88;89.65;;;;;;;25.01;38.68;101438.63;5041418;28;20472;-68
2023/07/17 00:13:29;;;;;;;95.63;91.22;;;;;;;24.99;39.10;101444.47;5042404;28;20501;-68
2023/07/17 00:15:54;;;;;;;90.97;86.68;;;;;;;24.96;39.38;101439.59;5044749;28;20473;-70
2023/07/17 00:18:19;;;;;;;93.18;88.97;;;;;;;24.94;38.81;101428.03;5047444;28;20047;-69
2023/07/17 00:20:45;;;;;;;97.07;92.50;;;;;;;24.92;39.05;101438.63;5040576;28;20108;-68
2023/07/17 00:23:10;;;;;;;92.60;88.30;;;;;;;24.90;39.37;101438.13;5046092;28;20094;-68
2023/07/17 00:25:36;;;;;;;93.43;89.25;;;;;;;24.89;38.97;101438.44;5046326;28;20103;-68
2023/07/17 00:28:01;;;;;;;92.07;87.68;;;;;;;24.88;39.35;101436.84;5049278;28;20463;-67
2023/07/17 00:30:27;;;;;;;93.35;89.13;;;;;;;24.85;38.93;101432.78;5042620;28;20388;-68
2023/07/17 00:32:52;;;;;;;91.55;87.13;;;;;;;24.83;39.42;101433.06;5041259;28;20515;-70
2023/07/17 00:35:17;;;;;;;90.38;86.05;;;;;;;24.81;39.14;101431.78;5042869;28;20033;-74
2023/07/17 00:37:43;;;;;;;87.30;83.35;;;;;;;24.79;39.51;101439.56;5049386;28;20136;-68
2023/07/17 00:40:09;;;;;;;89.40;85.00;;;;;;;24.75;39.33;101439.41;5041486;28;20032;-68
2023/07/17 00:42:35;;;;;;;89.65;85.63;;;;;;;24.75;39.40;101438.59;5045565;28;20043;-68
2023/07/17 00:45:01;;;;;;;93.63;89.15;;;;;;;24.73;39.35;101441.69;5045414;28;20041;-68
2023/07/17 00:47:29;;;;;;;88.28;84.18;;;;;;;24.71;39.47;101445.91;5043063;28;20535;-67
2023/07/17 00:49:55;;;;;;;89.85;85.85;;;;;;;24.69;39.63;101439.88;5036580;28;20057;-73
2023/07/17 00:52:21;;;;;;;90.93;86.88;;;;;;;24.67;39.18;101454.03;5043461;28;20485;-68
2023/07/17 00:54:47;;;;;;;89.60;84.97;;;;;;;24.65;39.68;101456.28;5042676;28;20036;-69
2023/07/17 00:57:15;;;;;;;90.68;86.47;;;;;;;24.62;39.23;101445.88;5044334;28;20086;-70
2023/07/17 00:59:41;;;;;;;92.15;87.93;;;;;;;24.61;39.76;101452.53;5043217;28;20029;-69
2023/07/17 01:02:08;;;;;;;93.72;89.43;;;;;;;24.58;39.59;101448.47;5043641;28;20083;-67
2023/07/17 01:04:33;;;;;;;88.55;84.15;;;;;;;24.56;39.74;101442.44;5042371;28;20052;-69
2023/07/17 01:06:59;;;;;;;91.65;87.45;;;;;;;24.54;39.62;101446.66;5045348;28;20453;-72
2023/07/17 01:09:24;;;;;;;84.82;80.82;;;;;;;24.52;39.68;101455.28;5046909;28;20045;-70
2023/07/17 01:11:50;;;;;;;91.05;86.95;;;;;;;24.51;39.69;101456.41;5041212;28;20037;-68
2023/07/17 01:14:19;;;;;;;89.70;85.50;;;;;;;24.49;39.71;101461.41;5040007;28;20090;-67
2023/07/17 01:16:47;;;;;;;89.40;84.55;;;;;;;24.47;39.36;101460.09;5038540;28;20068;-68
2023/07/17 01:19:13;;;;;;;84.95;81.15;;;;;;;24.45;39.39;101465.97;5042469;28;20131;-69
2023/07/17 01:21:49;;;;;;;91.45;87.35;;;;;;;24.42;39.38;101463.81;5048926;28;20477;-70
2023/07/17 01:24:14;;;;;;;88.53;84.30;;;;;;;24.40;39.68;101461.38;5040515;28;20036;-69
2023/07/17 01:26:39;;;;;;;84.72;80.82;;;;;;;24.38;39.79;101463.63;5046158;28;20037;-68
2023/07/17 01:29:05;;;;;;;89.47;85.43;;;;;;;24.37;39.89;101461.19;5039986;28;20523;-68
2023/07/17 01:31:30;;;;;;;87.18;83.07;;;;;;;24.34;39.96;101462.66;5050346;28;20037;-71
2023/07/17 01:33:56;;;;;;;85.85;81.72;;;;;;;24.33;39.50;101454.69;5046413;28;20040;-68
2023/07/17 01:36:21;;;;;;;86.55;82.55;;;;;;;24.31;39.60;101462.47;5040441;28;20106;-69
2023/07/17 01:38:47;;;;;;;84.20;80.28;;;;;;;24.30;39.85;101460.84;5048389;28;20385;-68
2023/07/17 01:41:12;;;;;;;88.53;84.10;;;;;;;24.27;39.98;101465.06;5038266;28;20040;-67
2023/07/17 01:43:37;;;;;;;83.63;79.72;;;;;;;24.26;39.95;101465.38;5048435;28;20044;-69
2023/07/17 01:46:03;;;;;;;86.63;82.68;;;;;;;24.23;39.53;101463.25;5043466;28;20073;-68
2023/07/17 01:48:28;;;;;;;85.68;81.68;;;;;;;24.22;39.93;101459.69;5044833;28;20033;-69
2023/07/17 01:50:54;;;;;;;87.25;83.28;;;;;;;24.19;40.03;101463.88;5045359;28;20035;-68
2023/07/17 01:53:21;;;;;;;87.95;83.78;;;;;;;24.16;39.41;101456.22;5034531;28;20044;-68
2023/07/17 01:55:46;;;;;;;85.80;81.43;;;;;;;24.15;40.02;101459.31;5048202;28;20042;-70
2023/07/17 01:58:11;;;;;;;87.53;83.15;;;;;;;24.13;40.15;101465.13;5047735;28;20392;-69
2023/07/17 02:00:37;;;;;;;85.55;81.45;;;;;;;24.10;39.59;101462.22;5043465;28;20384;-70
2023/07/17 02:03:02;;;;;;;87.22;82.43;;;;;;;24.08;39.68;101473.56;5039445;28;20124;-68
2023/07/17 02:05:28;;;;;;;87.03;83.03;;;;;;;24.06;39.75;101466.72;5042420;28;20050;-70
2023/07/17 02:07:54;;;;;;;83.97;79.90;;;;;;;24.05;39.67;101473.38;5048159;28;20044;-68
2023/07/17 02:10:19;;;;;;;86.72;82.72;;;;;;;24.02;40.17;101479.53;5028066;28;20034;-69
2023/07/17 02:12:45;;;;;;;84.30;80.53;;;;;;;24.01;40.17;101472.38;5042644;28;20497;-69
2023/07/17 02:15:12;;;;;;;87.78;83.68;;;;;;;23.98;40.21;101476.59;5042887;28;20061;-68
2023/07/17 02:17:37;;;;;;;85.75;81.75;;;;;;;23.97;39.96;101477.72;5041817;28;20038;-68
2023/07/17 02:20:08;;;;;;;85.68;81.55;;;;;;;23.95;39.78;101477.22;5042565;28;20131;-70
2023/07/17 02:22:33;;;;;;;83.80;80.03;;;;;;;23.92;39.97;101473.16;5042361;28;20110;-68
2023/07/17 02:24:59;;;;;;;84.93;80.93;;;;;;;23.91;40.34;101478.97;5040258;28;20472;-68
2023/07/17 02:27:25;;;;;;;85.93;81.85;;;;;;;23.88;39.75;101480.41;5042742;28;20033;-70
2023/07/17 02:29:50;;;;;;;82.90;79.10;;;;;;;23.87;40.35;101478.78;5041955;28;20033;-68
2023/07/17 02:32:16;;;;;;;89.18;84.95;;;;;;;23.85;39.86;101471.97;5044858;28;20065;-70
2023/07/17 02:34:41;;;;;;;85.55;81.65;;;;;;;23.81;40.19;101471.75;5044277;28;20046;-69
2023/07/17 02:37:10;;;;;;;81.43;77.72;;;;;;;23.80;40.29;101478.41;5038879;28;20473;-72
2023/07/17 02:39:36;;;;;;;85.38;80.28;;;;;;;23.78;40.22;101479.88;5045357;28;20120;-70
2023/07/17 02:42:01;;;;;;;85.70;81.50;;;;;;;23.77;40.39;101486.53;5042565;28;20116;-70
2023/07/17 02:44:27;;;;;;;83.30;79.40;;;;;;;23.73;39.96;101489.88;5044525;28;20472;-68
2023/07/17 02:46:52;;;;;;;83.28;79.18;;;;;;;23.71;40.35;101486.63;5038523;28;20022;-68
2023/07/17 02:49:17;;;;;;;81.10;77.40;;;;;;;23.70;40.51;101496.00;5047510;28;20123;-67
2023/07/17 02:51:43;;;;;;;82.25;78.18;;;;;;;23.68;39.96;101498.25;5041968;28;20041;-67
2023/07/17 02:54:08;;;;;;;86.10;82.20;;;;;;;23.65;40.14;101495.31;5047793;28;20041;-68
2023/07/17 02:56:34;;;;;;;82.03;78.15;;;;;;;23.63;40.48;101492.88;5032179;28;20037;-68
2023/07/17 02:58:59;;;;;;;84.90;80.97;;;;;;;23.61;40.03;101500.66;5048419;28;20052;-72
2023/07/17 03:01:25;;;;;;;83.65;79.53;;;;;;;23.59;40.43;101502.91;5046478;28;20038;-68
2023/07/17 03:03:51;;;;;;;80.47;76.45;;;;;;;23.57;40.57;101507.91;5045393;28;20052;-70
2023/07/17 03:06:16;;;;;;;84.70;80.68;;;;;;;23.55;40.01;101507.41;5039195;28;20124;-69
2023/07/17 03:08:42;;;;;;;79.32;75.53;;;;;;;23.53;40.10;101498.63;5042961;28;20033;-71
2023/07/17 03:11:08;;;;;;;82.20;78.53;;;;;;;23.50;40.16;101508.34;5046445;28;20033;-69
2023/07/17 03:13:33;;;;;;;79.60;75.88;;;;;;;23.49;40.55;101509.47;5048148;28;20408;-69
2023/07/17 03:15:59;;;;;;;81.35;77.45;;;;;;;23.46;40.07;101510.09;5043422;28;20026;-70
2023/07/17 03:18:27;;;;;;;84.25;80.32;;;;;;;23.44;40.60;101504.09;5047560;28;20040;-72
2023/07/17 03:20:56;;;;;;;80.57;76.47;;;;;;;23.42;40.31;101508.28;5045407;28;20058;-68
2023/07/17 03:23:21;;;;;;;82.53;78.65;;;;;;;23.40;40.66;101510.53;5042597;28;20095;-69
2023/07/17 03:25:47;;;;;;;80.40;76.68;;;;;;;23.38;40.46;101502.56;5042670;28;20045;-69
2023/07/17 03:28:12;;;;;;;83.03;79.28;;;;;;;23.37;40.64;101506.44;5043841;28;20037;-69
2023/07/17 03:30:40;;;;;;;81.40;77.32;;;;;;;23.33;40.48;101503.50;5045546;28;20057;-69
2023/07/17 03:33:05;;;;;;;80.65;76.85;;;;;;;23.31;40.23;101514.03;5039734;28;20113;-68
2023/07/17 03:35:31;;;;;;;81.53;77.82;;;;;;;23.28;40.39;101511.91;5049226;28;20599;-71
2023/07/17 03:37:56;;;;;;;83.97;80.07;;;;;;;23.26;40.81;101508.63;5043921;28;20501;-71
2023/07/17 03:40:21;;;;;;;81.50;77.35;;;;;;;23.25;40.80;101508.94;5045395;28;20029;-71
2023/07/17 03:42:47;;;;;;;79.70;75.88;;;;;;;23.22;40.44;101504.03;5045678;28;20041;-68
2023/07/17 03:45:12;;;;;;;79.00;75.00;;;;;;;23.20;40.69;101507.09;5046553;28;20064;-70
2023/07/17 03:47:38;;;;;;;77.22;73.53;;;;;;;23.18;40.42;101517.59;5037433;28;20576;-68
2023/07/17 03:50:04;;;;;;;81.65;77.85;;;;;;;23.16;40.53;101514.38;5043361;28;20472;-68
2023/07/17 03:52:29;;;;;;;81.90;78.20;;;;;;;23.14;40.43;101524.88;5045355;28;20052;-69
2023/07/17 03:54:55;;;;;;;81.00;76.63;;;;;;;23.12;40.78;101524.38;5040103;28;20485;-68
2023/07/17 03:57:21;;;;;;;79.35;75.55;;;;;;;23.09;40.62;101530.50;5046962;28;20037;-75
2023/07/17 03:59:54;;;;;;;78.22;74.68;;;;;;;23.08;40.68;101529.69;5042945;28;20037;-69
2023/07/17 04:02:21;;;;;;;78.25;74.60;;;;;;;23.05;40.39;101530.28;5046726;28;20472;-69
2023/07/17 04:04:46;;;;;;;80.25;76.47;;;;;;;23.03;40.84;101532.56;5044743;28;20036;-70
2023/07/17 04:07:12;;;;;;;81.53;77.57;;;;;;;23.01;40.98;101534.00;5043964;28;20120;-72
2023/07/17 04:09:38;;;;;;;78.13;74.43;;;;;;;22.99;40.59;101528.78;5046484;28;20364;-71
2023/07/17 04:12:05;;;;;;;77.00;73.45;;;;;;;22.96;40.86;101529.38;5039317;28;20033;-70
2023/07/17 04:14:31;;;;;;;81.20;77.15;;;;;;;22.96;40.34;101531.31;5043110;28;20094;-69
2023/07/17 04:16:57;;;;;;;81.65;77.82;;;;;;;22.93;40.64;101541.00;5042095;28;20365;-68
2023/07/17 04:19:22;;;;;;;80.38;76.47;;;;;;;22.91;41.06;101532.22;5042001;28;20036;-70
2023/07/17 04:21:48;;;;;;;76.40;72.95;;;;;;;22.89;40.90;101534.47;5044352;28;20557;-71
2023/07/17 04:24:13;;;;;;;76.85;73.10;;;;;;;22.88;41.04;101541.91;5018028;28;20034;-69
2023/07/17 04:26:38;;;;;;;78.88;75.25;;;;;;;22.85;40.49;101539.75;5046046;28;20385;-68
2023/07/17 04:29:04;;;;;;;80.43;76.53;;;;;;;22.83;40.97;101536.50;5044536;28;20029;-68
2023/07/17 04:31:29;;;;;;;79.45;75.65;;;;;;;22.81;40.76;101541.50;5048059;28;20397;-68
2023/07/17 04:33:54;;;;;;;76.95;73.30;;;;;;;22.79;40.69;101543.75;5035857;28;20129;-71
2023/07/17 04:36:20;;;;;;;76.68;73.13;;;;;;;22.78;40.63;101550.38;5043300;28;20084;-69
2023/07/17 04:38:45;;;;;;;78.78;75.18;;;;;;;22.76;40.87;101549.88;5030549;28;20045;-69
2023/07/17 04:41:11;;;;;;;77.20;73.18;;;;;;;22.74;41.11;101554.88;5044370;28;20052;-69
2023/07/17 04:43:36;;;;;;;77.53;73.40;;;;;;;22.72;41.06;101548.84;5046415;28;20438;-69
2023/07/17 04:46:01;;;;;;;80.22;76.00;;;;;;;22.71;41.00;101561.00;5041323;28;20044;-68
2023/07/17 04:48:27;;;;;;;76.25;72.60;;;;;;;22.67;40.86;101563.53;5045435;28;20044;-69
2023/07/17 04:50:53;;;;;;;78.10;74.30;;;;;;;22.67;40.55;101563.53;5045782;28;20040;-70
2023/07/17 04:53:19;;;;;;;79.32;75.20;;;;;;;22.64;41.14;101564.13;5041133;28;20026;-67
2023/07/17 04:55:44;;;;;;;78.03;74.28;;;;;;;22.63;41.23;101565.28;5051160;28;20033;-68
2023/07/17 04:58:09;;;;;;;74.22;70.72;;;;;;;22.61;41.08;101563.94;5042869;28;20515;-69
2023/07/17 05:00:35;;;;;;;76.93;72.78;;;;;;;22.59;41.19;101566.19;5036732;28;20044;-71
2023/07/17 05:03:00;;;;;;;74.53;70.82;;;;;;;22.58;40.98;101575.53;5041424;28;20400;-71
2023/07/17 05:05:26;;;;;;;73.25;69.85;;;;;;;22.56;40.90;101570.34;5041091;28;20484;-70
2023/07/17 05:07:51;;;;;;;70.68;67.40;;;;;;;22.54;41.38;101569.03;5041628;28;20471;-69
2023/07/17 05:10:18;;;;;;;73.00;69.65;;;;;;;22.52;41.09;101563.81;5042665;28;20520;-70
2023/07/17 05:12:43;;;;;;;73.53;69.93;;;;;;;22.51;40.81;101578.72;5044590;28;20045;-70
2023/07/17 05:15:09;;;;;;;74.40;70.60;;;;;;;22.49;40.85;101575.44;5044925;28;20103;-69
2023/07/17 05:17:35;;;;;;;73.18;69.38;;;;;;;22.48;40.83;101576.56;5045336;28;20419;-70
2023/07/17 05:20:00;;;;;;;73.30;69.50;;;;;;;22.46;41.34;101576.03;5040217;28;20079;-70
2023/07/17 05:22:26;;;;;;;74.32;70.55;;;;;;;22.45;41.10;101586.25;5046961;28;20484;-69
2023/07/17 05:24:52;;;;;;;74.22;70.53;;;;;;;22.44;40.88;101595.59;5042246;28;20061;-68
2023/07/17 05:27:17;;;;;;;74.18;70.45;;;;;;;22.43;41.36;101602.25;5038317;28;20506;-71
2023/07/17 05:29:43;;;;;;;74.03;70.38;;;;;;;22.43;41.50;101595.94;5041364;28;20097;-69
2023/07/17 05:32:08;;;;;;;74.13;70.43;;;;;;;22.42;40.93;101595.09;5045858;28;20041;-68
2023/07/17 05:34:34;;;;;;;72.22;68.63;;;;;;;22.42;40.89;101592.34;5042882;28;20045;-75
2023/07/17 05:36:59;;;;;;;70.90;67.65;;;;;;;22.41;41.11;101598.16;5047612;28;20469;-67
2023/07/17 05:39:26;;;;;;;74.85;71.35;;;;;;;22.41;40.96;101603.66;5050460;28;20032;-67
2023/07/17 05:41:52;;;;;;;75.13;71.22;;;;;;;22.42;41.42;101602.53;5050047;28;20029;-69
2023/07/17 05:44:17;;;;;;;74.45;70.95;;;;;;;22.40;41.11;101602.84;5044071;28;20038;-70
2023/07/17 05:46:42;;;;;;;74.30;70.80;;;;;;;22.39;41.07;101603.94;5031346;28;20029;-69
2023/07/17 05:49:08;;;;;;;70.97;67.40;;;;;;;22.39;41.48;101595.69;5034150;28;20072;-68
2023/07/17 05:51:33;;;;;;;71.57;67.93;;;;;;;22.39;41.29;101605.91;5046242;28;20037;-70
2023/07/17 05:53:59;;;;;;;73.68;70.07;;;;;;;22.40;41.14;101607.53;5033292;28;20096;-69
2023/07/17 05:56:24;;;;;;;71.65;67.85;;;;;;;22.40;41.19;101605.59;5049688;28;20039;-69
2023/07/17 05:58:50;;;;;;;73.88;70.35;;;;;;;22.41;41.50;101615.50;5050552;28;20124;-68
2023/07/17 06:01:15;;;;;;;73.18;69.63;;;;;;;22.41;41.38;101609.16;5051214;28;20047;-67
2023/07/17 06:03:40;;;;;;;73.03;69.40;;;;;;;22.41;41.08;101612.72;5050071;28;20037;-70
2023/07/17 06:06:06;;;;;;;72.25;68.28;;;;;;;22.41;41.73;101621.00;5035102;28;20167;-69
2023/07/17 06:08:31;;;;;;;74.47;70.28;;;;;;;22.42;41.65;101621.81;5046716;28;20541;-69
2023/07/17 06:10:57;;;;;;;73.45;69.63;;;;;;;22.42;41.38;101622.63;5035658;28;20037;-68
2023/07/17 06:13:22;;;;;;;71.78;67.78;;;;;;;22.43;41.48;101621.50;5040005;28;20121;-69
2023/07/17 06:15:47;;;;;;;74.55;70.70;;;;;;;22.43;41.61;101632.53;5013562;28;20080;-70
2023/07/17 06:18:13;;;;;;;74.47;70.88;;;;;;;22.45;41.69;101629.44;5036965;28;20033;-69
2023/07/17 06:20:39;;;;;;;72.43;68.97;;;;;;;22.44;41.60;101636.09;5042006;28;20102;-68
2023/07/17 06:23:04;;;;;;;72.90;69.20;;;;;;;22.45;41.27;101633.03;5050739;28;20075;-68
2023/07/17 06:25:30;;;;;;;73.88;70.18;;;;;;;22.46;41.68;101636.59;5050844;28;20059;-70
2023/07/17 06:27:55;;;;;;;73.35;68.68;;;;;;;22.47;41.34;101649.25;5041435;28;20037;-70
2023/07/17 06:30:21;;;;;;;73.00;69.40;;;;;;;22.46;41.12;101645.69;5030026;28;20041;-70
2023/07/17 06:32:46;;;;;;;75.40;71.50;;;;;;;22.47;41.31;101643.75;5042618;28;20044;-68
2023/07/17 06:35:11;;;;;;;74.53;71.13;;;;;;;22.47;41.61;101644.56;5045453;28;20120;-69
2023/07/17 06:37:37;;;;;;;74.95;71.22;;;;;;;22.45;41.54;101644.06;5035916;28;20040;-69
2023/07/17 06:40:04;;;;;;;73.88;70.25;;;;;;;22.47;41.64;101643.75;5036652;28;20056;-68
2023/07/17 06:42:33;;;;;;;74.95;71.35;;;;;;;22.46;41.56;101651.19;5037980;28;20052;-70
2023/07/17 06:44:58;;;;;;;73.55;70.20;;;;;;;22.46;41.57;101658.63;5049690;28;20487;-69
2023/07/17 06:47:24;;;;;;;75.13;71.50;;;;;;;22.46;41.86;101653.94;5041444;28;20048;-70
2023/07/17 06:49:49;;;;;;;75.57;71.47;;;;;;;22.47;41.91;101657.50;5036105;28;20033;-69
2023/07/17 06:52:15;;;;;;;75.72;71.93;;;;;;;22.49;41.54;101665.47;5036516;28;20460;-73
2023/07/17 06:54:40;;;;;;;75.93;71.97;;;;;;;22.49;41.74;101668.22;5033139;28;20095;-69
2023/07/17 06:57:06;;;;;;;75.43;71.72;;;;;;;22.50;42.04;101661.59;5038203;28;20087;-68
2023/07/17 06:59:32;;;;;;;76.63;72.88;;;;;;;22.52;42.03;101664.88;5039112;28;20401;-68
2023/07/17 07:01:57;;;;;;;75.63;71.93;;;;;;;22.53;42.20;101670.09;5043659;28;20044;-69
2023/07/17 07:04:23;;;;;;;77.80;73.43;;;;;;;22.55;41.89;101673.31;5044459;28;20041;-68
2023/07/17 07:06:48;;;;;;;72.88;69.20;;;;;;;22.56;42.24;101674.16;5049226;28;20056;-69
2023/07/17 07:09:14;;;;;;;75.38;71.72;;;;;;;22.57;41.94;101671.09;5045748;28;20045;-72
2023/07/17 07:11:39;;;;;;;76.47;72.65;;;;;;;22.58;42.27;101686.53;5034277;28;20045;-70
2023/07/17 07:14:05;;;;;;;76.65;72.43;;;;;;;22.60;42.04;101680.69;5030929;28;20420;-73
2023/07/17 07:16:30;;;;;;;72.65;69.15;;;;;;;22.62;41.96;101686.72;5039691;28;20041;-68
2023/07/17 07:18:55;;;;;;;75.05;71.15;;;;;;;22.63;42.33;101683.69;5044665;28;20041;-69
2023/07/17 07:21:21;;;;;;;76.53;72.78;;;;;;;22.64;42.46;101677.03;5039168;28;20050;-73
2023/07/17 07:23:46;;;;;;;75.05;71.18;;;;;;;22.66;42.53;101685.81;5032029;28;20433;-68
2023/07/17 07:26:12;;;;;;;75.03;71.28;;;;;;;22.67;42.46;101690.19;5031751;28;20029;-72
2023/07/17 07:28:37;;;;;;;76.38;72.28;;;;;;;22.69;42.06;101692.66;5031919;28;20145;-71
2023/07/17 07:31:02;;;;;;;73.97;70.47;;;;;;;22.70;42.42;101697.03;5035130;28;20459;-68
2023/07/17 07:33:28;;;;;;;76.82;72.80;;;;;;;22.71;42.00;101706.97;5036976;28;20047;-69
2023/07/17 07:35:54;;;;;;;77.85;73.53;;;;;;;22.72;42.33;101700.31;5036569;28;20037;-70
2023/07/17 07:38:19;;;;;;;79.85;75.30;;;;;;;22.74;42.15;101698.09;5030788;28;20048;-70
2023/07/17 07:40:45;;;;;;;78.72;74.97;;;;;;;22.76;41.97;101690.34;5028817;28;20029;-70
2023/07/17 07:43:11;;;;;;;78.53;74.50;;;;;;;22.77;42.13;101697.47;5045364;28;20128;-70
2023/07/17 07:45:36;;;;;;;76.65;73.03;;;;;;;22.79;42.56;101702.69;5030511;28;20087;-71
2023/07/17 07:48:02;;;;;;;80.13;76.13;;;;;;;22.80;42.05;101710.63;5031683;28;20076;-70
2023/07/17 07:50:27;;;;;;;78.13;74.45;;;;;;;22.82;42.27;101713.91;5033919;28;20045;-68
2023/07/17 07:52:54;;;;;;;78.25;74.13;;;;;;;22.84;42.08;101716.38;5036606;28;20029;-71
2023/07/17 07:55:20;;;;;;;76.82;72.95;;;;;;;22.84;41.99;101719.94;5033572;28;20033;-73
2023/07/17 07:57:45;;;;;;;78.30;74.05;;;;;;;22.86;42.64;101711.38;5037251;28;20033;-70
2023/07/17 08:00:12;;;;;;;76.50;72.70;;;;;;;22.87;42.60;101713.81;5030634;28;20112;-71
2023/07/17 08:02:37;;;;;;;76.85;73.00;;;;;;;22.89;42.60;101710.78;5040086;28;20457;-71
2023/07/17 08:05:03;;;;;;;79.20;75.35;;;;;;;22.90;42.48;101710.44;5040382;28;20397;-71
2023/07/17 08:07:28;;;;;;;79.35;75.60;;;;;;;22.92;42.65;101712.91;5046495;28;20036;-77
2023/07/17 08:09:54;;;;;;;81.18;77.05;;;;;;;22.95;42.24;101714.25;5037407;28;20052;-70
2023/07/17 08:12:19;;;;;;;79.50;75.63;;;;;;;22.97;42.92;101723.03;5019570;28;20560;-74
2023/07/17 08:14:45;;;;;;;77.47;73.22;;;;;;;23.00;42.69;101722.47;5033167;28;20041;-71
2023/07/17 08:17:10;;;;;;;77.72;73.60;;;;;;;23.01;42.33;101721.34;5041273;28;20573;-72
2023/07/17 08:19:36;;;;;;;74.93;71.32;;;;;;;23.04;42.60;101717.97;5030673;28;20532;-70
2023/07/17 08:22:01;;;;;;;85.63;80.70;;;;;;;23.06;42.70;101729.53;5043289;28;20135;-70
2023/07/17 08:24:27;;;;;;;78.60;74.75;;;;;;;23.08;42.56;101733.63;5034001;28;20052;-70
2023/07/17 08:26:52;;;;;;;80.60;76.90;;;;;;;23.11;42.49;101727.50;5040596;28;20112;-70
2023/07/17 08:29:17;;;;;;;80.47;76.43;;;;;;;23.14;42.26;101734.34;5039175;28;20489;-71
2023/07/17 08:31:43;;;;;;;79.03;75.43;;;;;;;23.17;42.28;101730.97;5043913;28;20103;-70
2023/07/17 08:34:08;;;;;;;83.75;79.40;;;;;;;23.20;42.59;101729.53;5039889;28;20047;-74
2023/07/17 08:36:34;;;;;;;83.05;79.05;;;;;;;23.23;42.24;101726.97;5033052;28;20385;-72
2023/07/17 08:38:59;;;;;;;81.13;77.13;;;;;;;23.26;42.74;101729.16;5030684;28;20108;-68
2023/07/17 08:41:25;;;;;;;80.28;76.38;;;;;;;23.32;42.42;101736.19;5030610;28;20056;-70
2023/07/17 08:43:51;;;;;;;83.18;79.25;;;;;;;23.36;42.81;101739.16;5031339;28;20053;-71
2023/07/17 08:46:18;;;;;;;81.63;77.82;;;;;;;23.39;42.36;101741.31;5030829;28;20045;-72
2023/07/17 08:48:44;;;;;;;82.18;78.28;;;;;;;23.43;42.35;101739.56;5034973;28;20041;-70
2023/07/17 08:51:11;;;;;;;85.03;80.47;;;;;;;23.47;42.50;101734.25;5029311;28;20132;-70
2023/07/17 08:53:40;;;;;;;80.78;76.88;;;;;;;23.52;42.70;101739.69;5030538;28;20041;-70
2023/07/17 08:56:07;;;;;;;82.25;78.03;;;;;;;23.55;42.28;101739.88;5046772;28;20146;-70
2023/07/17 08:58:32;;;;;;;88.00;83.63;;;;;;;23.62;42.36;101733.16;5035983;28;20033;-71
2023/07/17 09:00:59;;;;;;;82.38;78.63;;;;;;;23.64;42.39;101742.75;5029502;28;20108;-71
2023/07/17 09:03:24;;;;;;;82.75;78.55;;;;;;;23.69;42.47;101736.31;5042264;28;20026;-71
2023/07/17 09:05:50;;;;;;;86.95;82.70;;;;;;;23.74;42.52;101750.84;5039901;28;20051;-72
2023/07/17 09:08:16;;;;;;;89.28;84.60;;;;;;;23.79;42.57;101746.31;5041844;28;20041;-71
2023/07/17 09:10:42;;;;;;;83.18;79.38;;;;;;;23.83;42.45;101734.38;5018393;28;20033;-71
2023/07/17 09:13:07;;;;;;;89.38;84.80;;;;;;;23.90;42.49;101731.19;5036594;28;20029;-72
2023/07/17 09:15:33;;;;;;;84.88;81.13;;;;;;;23.94;42.58;101724.75;5039956;28;20029;-69
2023/07/17 09:17:59;;;;;;;93.30;88.82;;;;;;;24.00;42.43;101733.75;5032993;28;20079;-70
2023/07/17 09:20:25;;;;;;;89.05;84.80;;;;;;;24.05;42.45;101732.81;5031107;28;20068;-72
2023/07/17 09:23:03;;;;;;;87.65;83.53;;;;;;;24.11;41.82;101734.31;5033091;28;20041;-70
2023/07/17 09:25:29;;;;;;;87.82;83.72;;;;;;;24.16;41.72;101740.53;5032414;28;20396;-70
2023/07/17 09:27:56;;;;;;;89.55;85.38;;;;;;;24.23;41.93;101739.31;5030163;28;20049;-70
2023/07/17 09:30:24;;;;;;;87.50;83.63;;;;;;;24.27;41.90;101741.13;5031987;28;20110;-70
2023/07/17 09:32:51;;;;;;;87.97;83.78;;;;;;;24.32;42.02;101754.03;5039164;28;20422;-70
2023/07/17 09:35:23;;;;;;;90.30;86.05;;;;;;;24.38;41.79;101747.22;5036665;28;20358;-70
2023/07/17 09:37:49;;;;;;;86.60;82.80;;;;;;;24.43;41.48;101747.13;5038560;28;20025;-70
2023/07/17 09:40:18;;;;;;;91.15;86.75;;;;;;;24.49;41.80;101747.84;5046597;28;20032;-71
2023/07/17 09:42:45;;;;;;;92.53;88.30;;;;;;;24.54;41.40;101743.00;5031844;28;20029;-72
2023/07/17 09:45:11;;;;;;;94.75;90.35;;;;;;;24.59;41.45;101747.59;5037044;28;20079;-72
2023/07/17 09:47:38;;;;;;;90.07;85.95;;;;;;;24.65;41.50;101740.81;5033417;28;20033;-71
2023/07/17 09:50:04;;;;;;;91.05;86.88;;;;;;;24.70;41.37;101745.41;5039076;28;20546;-74
2023/07/17 09:52:31;;;;;;;90.25;86.15;;;;;;;24.72;41.51;101746.72;5032517;28;20037;-71
2023/07/17 09:55:00;;;;;;;94.50;90.20;;;;;;;24.76;41.07;101742.19;5033090;28;20499;-71
2023/07/17 09:57:36;;;;;;;94.30;89.88;;;;;;;24.82;40.83;101751.16;5048751;28;20037;-72
2023/07/17 10:00:14;;;;;;;92.63;87.97;;;;;;;24.86;40.94;101745.84;5032128;28;20022;-71
2023/07/17 10:03:04;;;;;;;90.38;86.18;;;;;;;24.91;40.92;101745.72;5032814;28;20055;-71
2023/07/17 10:05:32;;;;;;;91.93;87.60;;;;;;;24.97;40.98;101747.19;5029665;28;20495;-70
2023/07/17 10:07:59;;;;;;;94.05;89.70;;;;;;;25.00;40.53;101747.41;5029470;28;20037;-71
2023/07/17 10:10:25;;;;;;;91.40;87.22;;;;;;;25.08;40.54;101748.56;5044176;28;20464;-71
2023/07/17 10:12:51;;;;;;;94.15;89.65;;;;;;;25.14;40.74;101746.47;5037245;28;20122;-71
2023/07/17 10:15:17;;;;;;;98.90;94.30;;;;;;;25.21;40.74;101747.69;5038920;28;20036;-70
2023/07/17 10:17:42;;;;;;;96.45;92.05;;;;;;;25.27;40.40;101748.34;5042336;28;20034;-70
2023/07/17 10:20:10;;;;;;;98.78;94.18;;;;;;;25.33;40.63;101744.34;5032090;28;20061;-70
2023/07/17 10:22:43;;;;;;;94.00;89.72;;;;;;;25.40;40.29;101739.16;5046325;28;20029;-71
2023/07/17 10:25:18;;;;;;;97.30;92.82;;;;;;;25.50;40.32;101740.00;5046168;28;20388;-71
2023/07/17 10:28:03;;;;;;;102.75;98.15;;;;;;;25.56;39.93;101747.03;5036549;28;20078;-71
2023/07/17 10:30:29;;;;;;;97.15;92.60;;;;;;;25.63;40.33;101744.63;5027334;28;20040;-69
2023/07/17 10:33:13;;;;;;;100.10;95.63;;;;;;;25.71;39.70;101740.25;5033195;28;20051;-74
2023/07/17 10:35:57;;;;;;;101.82;97.18;;;;;;;25.78;39.93;101738.63;5027816;28;20056;-73
2023/07/17 10:38:28;;;;;;;99.07;94.70;;;;;;;25.87;39.94;101744.22;5033021;28;20033;-72
2023/07/17 10:41:11;;;;;;;101.22;96.47;;;;;;;25.94;40.10;101740.97;5028526;28;20040;-71
2023/07/17 10:43:48;;;;;;;105.72;100.70;;;;;;;26.01;39.55;101749.63;5038711;28;20099;-71
2023/07/17 10:46:14;;;;;;;106.25;101.53;;;;;;;26.08;39.53;101749.94;5028247;28;20055;-70
2023/07/17 10:48:39;;;;;;;104.30;99.60;;;;;;;26.14;39.43;101751.44;5031576;28;20163;-70
2023/07/17 10:51:05;;;;;;;107.45;102.35;;;;;;;26.22;39.39;101741.50;5042642;28;20485;-70
2023/07/17 10:53:30;;;;;;;99.25;94.60;;;;;;;26.29;38.82;101741.81;5027320;28;20457;-71
2023/07/17 10:55:57;;;;;;;107.65;102.70;;;;;;;26.38;38.61;101747.34;5032299;28;20043;-71
2023/07/17 10:58:23;;;;;;;103.88;99.22;;;;;;;26.45;39.06;101736.59;5032385;28;20038;-71
2023/07/17 11:00:49;;;;;;;104.22;99.53;;;;;;;26.53;39.17;101735.81;5044563;28;20029;-70
2023/07/17 11:03:16;;;;;;;105.47;99.78;;;;;;;26.60;38.64;101738.91;5031056;28;20528;-73
2023/07/17 11:05:43;;;;;;;104.72;100.13;;;;;;;26.67;38.42;101733.69;5028816;28;20113;-70